sensor_id;sensor_type;location;lat;lon;timestamp;P1;durP1;ratioP1;P2;durP2;ratioP2
56726;SDS011;42609;52.700;6.236;2023-04-24T00:02:03;0.63;;;0.50;;
56726;SDS011;42609;52.700;6.236;2023-04-24T00:04:29;0.93;;;0.70;;
56726;SDS011;42609;52.700;6.236;2023-04-24T00:06:55;1.33;;;0.80;;
56726;SDS011;42609;52.700;6.236;2023-04-24T00:09:22;1.20;;;0.95;;
56726;SDS011;42609;52.700;6.236;2023-04-24T00:11:48;2.00;;;0.90;;
56726;SDS011;42609;52.700;6.236;2023-04-24T00:14:13;1.38;;;1.00;;
56726;SDS011;42609;52.700;6.236;2023-04-24T00:16:40;1.25;;;0.80;;
56726;SDS011;42609;52.700;6.236;2023-04-24T00:19:05;1.90;;;1.00;;
56726;SDS011;42609;52.700;6.236;2023-04-24T00:21:31;1.67;;;1.02;;
56726;SDS011;42609;52.700;6.236;2023-04-24T00:23:57;3.08;;;1.10;;
56726;SDS011;42609;52.700;6.236;2023-04-24T00:26:23;1.80;;;1.00;;
56726;SDS011;42609;52.700;6.236;2023-04-24T00:28:49;2.60;;;1.35;;
56726;SDS011;42609;52.700;6.236;2023-04-24T00:31:14;2.13;;;1.38;;
56726;SDS011;42609;52.700;6.236;2023-04-24T00:33:40;3.05;;;1.65;;
56726;SDS011;42609;52.700;6.236;2023-04-24T00:36:06;2.33;;;1.55;;
56726;SDS011;42609;52.700;6.236;2023-04-24T00:38:32;3.10;;;1.58;;
56726;SDS011;42609;52.700;6.236;2023-04-24T00:40:58;3.53;;;2.00;;
56726;SDS011;42609;52.700;6.236;2023-04-24T00:43:24;3.17;;;2.03;;
56726;SDS011;42609;52.700;6.236;2023-04-24T00:45:50;3.17;;;2.17;;
56726;SDS011;42609;52.700;6.236;2023-04-24T00:48:15;3.55;;;2.33;;
56726;SDS011;42609;52.700;6.236;2023-04-24T00:50:41;3.83;;;2.40;;
56726;SDS011;42609;52.700;6.236;2023-04-24T00:53:08;4.68;;;2.60;;
56726;SDS011;42609;52.700;6.236;2023-04-24T00:55:33;3.95;;;2.95;;
56726;SDS011;42609;52.700;6.236;2023-04-24T00:58:00;4.55;;;2.70;;
56726;SDS011;42609;52.700;6.236;2023-04-24T01:00:25;3.78;;;2.80;;
56726;SDS011;42609;52.700;6.236;2023-04-24T01:02:51;4.85;;;2.83;;
56726;SDS011;42609;52.700;6.236;2023-04-24T01:05:18;4.13;;;2.50;;
56726;SDS011;42609;52.700;6.236;2023-04-24T01:07:45;5.18;;;2.92;;
56726;SDS011;42609;52.700;6.236;2023-04-24T01:10:12;3.60;;;2.70;;
56726;SDS011;42609;52.700;6.236;2023-04-24T01:12:39;4.65;;;2.88;;
56726;SDS011;42609;52.700;6.236;2023-04-24T01:15:05;3.65;;;2.58;;
56726;SDS011;42609;52.700;6.236;2023-04-24T01:17:34;3.83;;;2.70;;
56726;SDS011;42609;52.700;6.236;2023-04-24T01:20:00;3.70;;;2.53;;
56726;SDS011;42609;52.700;6.236;2023-04-24T01:22:27;4.05;;;2.70;;
56726;SDS011;42609;52.700;6.236;2023-04-24T01:24:53;4.18;;;2.40;;
56726;SDS011;42609;52.700;6.236;2023-04-24T01:27:19;3.80;;;2.80;;
56726;SDS011;42609;52.700;6.236;2023-04-24T01:29:45;3.90;;;2.50;;
56726;SDS011;42609;52.700;6.236;2023-04-24T01:32:12;4.00;;;2.40;;
56726;SDS011;42609;52.700;6.236;2023-04-24T01:34:38;3.45;;;2.35;;
56726;SDS011;42609;52.700;6.236;2023-04-24T01:37:04;3.80;;;2.70;;
56726;SDS011;42609;52.700;6.236;2023-04-24T01:39:30;4.00;;;2.45;;
56726;SDS011;42609;52.700;6.236;2023-04-24T01:41:56;3.25;;;2.08;;
56726;SDS011;42609;52.700;6.236;2023-04-24T01:44:22;3.08;;;2.10;;
56726;SDS011;42609;52.700;6.236;2023-04-24T01:46:48;3.78;;;2.05;;
56726;SDS011;42609;52.700;6.236;2023-04-24T01:49:14;3.00;;;2.10;;
56726;SDS011;42609;52.700;6.236;2023-04-24T01:51:40;3.20;;;2.22;;
56726;SDS011;42609;52.700;6.236;2023-04-24T01:54:06;2.90;;;1.90;;
56726;SDS011;42609;52.700;6.236;2023-04-24T01:56:33;3.63;;;2.20;;
56726;SDS011;42609;52.700;6.236;2023-04-24T01:59:02;3.38;;;2.10;;
56726;SDS011;42609;52.700;6.236;2023-04-24T02:01:32;3.13;;;2.00;;
56726;SDS011;42609;52.700;6.236;2023-04-24T02:04:00;4.95;;;2.10;;
56726;SDS011;42609;52.700;6.236;2023-04-24T02:06:26;3.97;;;2.00;;
56726;SDS011;42609;52.700;6.236;2023-04-24T02:08:51;3.72;;;1.85;;
56726;SDS011;42609;52.700;6.236;2023-04-24T02:11:17;2.60;;;1.67;;
56726;SDS011;42609;52.700;6.236;2023-04-24T02:13:43;2.75;;;1.85;;
56726;SDS011;42609;52.700;6.236;2023-04-24T02:16:09;3.53;;;1.77;;
56726;SDS011;42609;52.700;6.236;2023-04-24T02:18:35;3.90;;;2.00;;
56726;SDS011;42609;52.700;6.236;2023-04-24T02:21:00;2.47;;;1.60;;
56726;SDS011;42609;52.700;6.236;2023-04-24T02:23:26;2.45;;;1.50;;
56726;SDS011;42609;52.700;6.236;2023-04-24T02:25:52;2.35;;;1.60;;
56726;SDS011;42609;52.700;6.236;2023-04-24T02:28:18;5.10;;;1.67;;
56726;SDS011;42609;52.700;6.236;2023-04-24T02:30:44;2.58;;;1.50;;
56726;SDS011;42609;52.700;6.236;2023-04-24T02:33:10;2.47;;;1.35;;
56726;SDS011;42609;52.700;6.236;2023-04-24T02:35:36;2.00;;;1.20;;
56726;SDS011;42609;52.700;6.236;2023-04-24T02:38:02;2.10;;;1.35;;
56726;SDS011;42609;52.700;6.236;2023-04-24T02:40:28;3.42;;;1.30;;
56726;SDS011;42609;52.700;6.236;2023-04-24T02:42:54;2.95;;;1.20;;
56726;SDS011;42609;52.700;6.236;2023-04-24T02:45:20;1.65;;;1.15;;
56726;SDS011;42609;52.700;6.236;2023-04-24T02:47:46;2.45;;;1.25;;
56726;SDS011;42609;52.700;6.236;2023-04-24T02:50:11;2.85;;;1.30;;
56726;SDS011;42609;52.700;6.236;2023-04-24T02:52:37;2.50;;;1.30;;
56726;SDS011;42609;52.700;6.236;2023-04-24T02:55:02;2.40;;;1.30;;
56726;SDS011;42609;52.700;6.236;2023-04-24T02:57:28;2.50;;;1.30;;
56726;SDS011;42609;52.700;6.236;2023-04-24T02:59:54;3.67;;;1.48;;
56726;SDS011;42609;52.700;6.236;2023-04-24T03:02:19;3.67;;;1.50;;
56726;SDS011;42609;52.700;6.236;2023-04-24T03:04:45;3.05;;;1.50;;
56726;SDS011;42609;52.700;6.236;2023-04-24T03:07:12;1.63;;;1.20;;
56726;SDS011;42609;52.700;6.236;2023-04-24T03:09:39;2.70;;;1.55;;
56726;SDS011;42609;52.700;6.236;2023-04-24T03:12:05;1.75;;;1.00;;
56726;SDS011;42609;52.700;6.236;2023-04-24T03:14:31;3.17;;;1.00;;
56726;SDS011;42609;52.700;6.236;2023-04-24T03:16:56;1.75;;;0.90;;
56726;SDS011;42609;52.700;6.236;2023-04-24T03:19:22;2.65;;;1.10;;
56726;SDS011;42609;52.700;6.236;2023-04-24T03:21:48;1.95;;;1.17;;
56726;SDS011;42609;52.700;6.236;2023-04-24T03:24:14;1.50;;;1.00;;
56726;SDS011;42609;52.700;6.236;2023-04-24T03:26:39;1.30;;;1.00;;
56726;SDS011;42609;52.700;6.236;2023-04-24T03:29:05;2.15;;;1.00;;
56726;SDS011;42609;52.700;6.236;2023-04-24T03:31:31;0.70;;;0.68;;
56726;SDS011;42609;52.700;6.236;2023-04-24T03:33:56;0.50;;;0.50;;
56726;SDS011;42609;52.700;6.236;2023-04-24T03:36:22;2.15;;;0.50;;
56726;SDS011;42609;52.700;6.236;2023-04-24T03:38:47;2.90;;;0.60;;
56726;SDS011;42609;52.700;6.236;2023-04-24T03:41:13;1.63;;;0.50;;
56726;SDS011;42609;52.700;6.236;2023-04-24T03:43:38;0.70;;;0.60;;
56726;SDS011;42609;52.700;6.236;2023-04-24T03:46:04;0.73;;;0.55;;
56726;SDS011;42609;52.700;6.236;2023-04-24T03:48:30;1.08;;;0.60;;
56726;SDS011;42609;52.700;6.236;2023-04-24T03:50:56;0.45;;;0.40;;
56726;SDS011;42609;52.700;6.236;2023-04-24T03:53:21;0.65;;;0.43;;
56726;SDS011;42609;52.700;6.236;2023-04-24T03:55:47;0.43;;;0.40;;
56726;SDS011;42609;52.700;6.236;2023-04-24T03:58:12;0.55;;;0.43;;
56726;SDS011;42609;52.700;6.236;2023-04-24T04:00:42;1.52;;;0.45;;
56726;SDS011;42609;52.700;6.236;2023-04-24T04:03:09;1.08;;;0.50;;
56726;SDS011;42609;52.700;6.236;2023-04-24T04:05:35;2.05;;;0.63;;
56726;SDS011;42609;52.700;6.236;2023-04-24T04:08:00;1.75;;;0.57;;
56726;SDS011;42609;52.700;6.236;2023-04-24T04:10:26;1.08;;;0.70;;
56726;SDS011;42609;52.700;6.236;2023-04-24T04:12:51;0.77;;;0.65;;
56726;SDS011;42609;52.700;6.236;2023-04-24T04:15:17;3.05;;;0.70;;
56726;SDS011;42609;52.700;6.236;2023-04-24T04:17:42;3.03;;;1.00;;
56726;SDS011;42609;52.700;6.236;2023-04-24T04:20:08;1.27;;;0.80;;
56726;SDS011;42609;52.700;6.236;2023-04-24T04:22:36;2.15;;;0.82;;
56726;SDS011;42609;52.700;6.236;2023-04-24T04:25:02;1.63;;;0.90;;
56726;SDS011;42609;52.700;6.236;2023-04-24T04:27:28;1.25;;;0.80;;
56726;SDS011;42609;52.700;6.236;2023-04-24T04:29:56;1.75;;;0.90;;
56726;SDS011;42609;52.700;6.236;2023-04-24T04:32:32;1.35;;;0.80;;
56726;SDS011;42609;52.700;6.236;2023-04-24T04:34:59;2.63;;;1.10;;
56726;SDS011;42609;52.700;6.236;2023-04-24T04:37:28;3.38;;;1.48;;
56726;SDS011;42609;52.700;6.236;2023-04-24T04:39:58;1.52;;;0.93;;
56726;SDS011;42609;52.700;6.236;2023-04-24T04:42:31;2.53;;;1.48;;
56726;SDS011;42609;52.700;6.236;2023-04-24T04:44:59;3.83;;;1.60;;
56726;SDS011;42609;52.700;6.236;2023-04-24T04:47:25;4.95;;;2.60;;
56726;SDS011;42609;52.700;6.236;2023-04-24T04:49:51;5.57;;;3.30;;
56726;SDS011;42609;52.700;6.236;2023-04-24T04:52:17;5.60;;;3.33;;
56726;SDS011;42609;52.700;6.236;2023-04-24T04:54:43;6.53;;;4.43;;
56726;SDS011;42609;52.700;6.236;2023-04-24T04:57:09;7.15;;;4.93;;
56726;SDS011;42609;52.700;6.236;2023-04-24T04:59:35;7.32;;;5.05;;
56726;SDS011;42609;52.700;6.236;2023-04-24T05:02:00;6.97;;;4.68;;
56726;SDS011;42609;52.700;6.236;2023-04-24T05:04:26;6.72;;;4.75;;
56726;SDS011;42609;52.700;6.236;2023-04-24T05:06:52;8.13;;;5.70;;
56726;SDS011;42609;52.700;6.236;2023-04-24T05:09:18;9.13;;;5.05;;
56726;SDS011;42609;52.700;6.236;2023-04-24T05:11:43;8.85;;;5.70;;
56726;SDS011;42609;52.700;6.236;2023-04-24T05:14:09;10.07;;;6.07;;
56726;SDS011;42609;52.700;6.236;2023-04-24T05:16:35;7.60;;;5.03;;
56726;SDS011;42609;52.700;6.236;2023-04-24T05:19:02;8.77;;;5.07;;
56726;SDS011;42609;52.700;6.236;2023-04-24T05:21:28;8.30;;;5.22;;
56726;SDS011;42609;52.700;6.236;2023-04-24T05:23:54;9.70;;;5.50;;
56726;SDS011;42609;52.700;6.236;2023-04-24T05:26:19;7.97;;;5.32;;
56726;SDS011;42609;52.700;6.236;2023-04-24T05:28:45;8.18;;;5.25;;
56726;SDS011;42609;52.700;6.236;2023-04-24T05:31:10;9.70;;;5.75;;
56726;SDS011;42609;52.700;6.236;2023-04-24T05:33:37;10.00;;;6.38;;
56726;SDS011;42609;52.700;6.236;2023-04-24T05:36:03;9.38;;;5.53;;
56726;SDS011;42609;52.700;6.236;2023-04-24T05:38:30;8.40;;;5.40;;
56726;SDS011;42609;52.700;6.236;2023-04-24T05:40:56;8.45;;;5.60;;
56726;SDS011;42609;52.700;6.236;2023-04-24T05:43:21;8.68;;;5.15;;
56726;SDS011;42609;52.700;6.236;2023-04-24T05:45:47;8.73;;;5.38;;
56726;SDS011;42609;52.700;6.236;2023-04-24T05:48:12;8.32;;;4.72;;
56726;SDS011;42609;52.700;6.236;2023-04-24T05:50:38;8.10;;;4.60;;
56726;SDS011;42609;52.700;6.236;2023-04-24T05:53:03;7.15;;;4.55;;
56726;SDS011;42609;52.700;6.236;2023-04-24T05:55:30;7.45;;;4.90;;
56726;SDS011;42609;52.700;6.236;2023-04-24T05:57:56;7.95;;;4.25;;
56726;SDS011;42609;52.700;6.236;2023-04-24T06:00:21;6.57;;;3.70;;
56726;SDS011;42609;52.700;6.236;2023-04-24T06:02:47;5.75;;;3.35;;
56726;SDS011;42609;52.700;6.236;2023-04-24T06:05:13;6.97;;;3.70;;
56726;SDS011;42609;52.700;6.236;2023-04-24T06:07:38;7.15;;;3.80;;
56726;SDS011;42609;52.700;6.236;2023-04-24T06:10:05;7.22;;;3.40;;
56726;SDS011;42609;52.700;6.236;2023-04-24T06:12:31;8.68;;;3.20;;
56726;SDS011;42609;52.700;6.236;2023-04-24T06:14:56;6.20;;;3.20;;
56726;SDS011;42609;52.700;6.236;2023-04-24T06:17:22;7.78;;;3.40;;
56726;SDS011;42609;52.700;6.236;2023-04-24T06:19:48;5.60;;;3.22;;
56726;SDS011;42609;52.700;6.236;2023-04-24T06:22:13;6.05;;;3.40;;
56726;SDS011;42609;52.700;6.236;2023-04-24T06:24:40;6.18;;;3.10;;
56726;SDS011;42609;52.700;6.236;2023-04-24T06:27:05;6.30;;;3.30;;
56726;SDS011;42609;52.700;6.236;2023-04-24T06:29:32;6.75;;;3.70;;
56726;SDS011;42609;52.700;6.236;2023-04-24T06:31:58;8.02;;;3.80;;
56726;SDS011;42609;52.700;6.236;2023-04-24T06:34:24;7.13;;;3.90;;
56726;SDS011;42609;52.700;6.236;2023-04-24T06:36:50;8.65;;;3.80;;
56726;SDS011;42609;52.700;6.236;2023-04-24T06:39:15;7.68;;;3.53;;
56726;SDS011;42609;52.700;6.236;2023-04-24T06:41:41;7.85;;;4.55;;
56726;SDS011;42609;52.700;6.236;2023-04-24T06:44:06;8.43;;;3.90;;
56726;SDS011;42609;52.700;6.236;2023-04-24T06:46:32;6.97;;;4.03;;
56726;SDS011;42609;52.700;6.236;2023-04-24T06:48:58;10.18;;;5.15;;
56726;SDS011;42609;52.700;6.236;2023-04-24T06:51:24;10.77;;;5.13;;
56726;SDS011;42609;52.700;6.236;2023-04-24T06:53:54;7.25;;;4.38;;
56726;SDS011;42609;52.700;6.236;2023-04-24T06:56:21;7.57;;;4.65;;
56726;SDS011;42609;52.700;6.236;2023-04-24T06:58:47;9.23;;;5.25;;
56726;SDS011;42609;52.700;6.236;2023-04-24T07:01:13;8.50;;;5.45;;
56726;SDS011;42609;52.700;6.236;2023-04-24T07:03:38;8.20;;;5.43;;
56726;SDS011;42609;52.700;6.236;2023-04-24T07:06:04;13.30;;;5.63;;
56726;SDS011;42609;52.700;6.236;2023-04-24T07:08:30;8.63;;;5.40;;
56726;SDS011;42609;52.700;6.236;2023-04-24T07:10:58;10.68;;;5.80;;
56726;SDS011;42609;52.700;6.236;2023-04-24T07:13:24;10.15;;;5.07;;
56726;SDS011;42609;52.700;6.236;2023-04-24T07:15:51;12.63;;;5.55;;
56726;SDS011;42609;52.700;6.236;2023-04-24T07:18:18;8.93;;;5.10;;
56726;SDS011;42609;52.700;6.236;2023-04-24T07:20:45;8.80;;;5.45;;
56726;SDS011;42609;52.700;6.236;2023-04-24T07:23:10;9.70;;;5.40;;
56726;SDS011;42609;52.700;6.236;2023-04-24T07:25:36;9.30;;;5.50;;
56726;SDS011;42609;52.700;6.236;2023-04-24T07:28:03;8.65;;;4.90;;
56726;SDS011;42609;52.700;6.236;2023-04-24T07:30:29;8.10;;;4.22;;
56726;SDS011;42609;52.700;6.236;2023-04-24T07:32:57;6.55;;;3.97;;
56726;SDS011;42609;52.700;6.236;2023-04-24T07:35:23;6.85;;;3.80;;
56726;SDS011;42609;52.700;6.236;2023-04-24T07:37:50;8.45;;;3.60;;
56726;SDS011;42609;52.700;6.236;2023-04-24T07:40:16;5.95;;;3.80;;
56726;SDS011;42609;52.700;6.236;2023-04-24T07:42:42;7.07;;;3.10;;
56726;SDS011;42609;52.700;6.236;2023-04-24T07:45:08;5.63;;;3.08;;
56726;SDS011;42609;52.700;6.236;2023-04-24T07:47:34;8.75;;;2.97;;
56726;SDS011;42609;52.700;6.236;2023-04-24T07:50:01;6.60;;;3.20;;
56726;SDS011;42609;52.700;6.236;2023-04-24T07:52:27;8.02;;;3.85;;
56726;SDS011;42609;52.700;6.236;2023-04-24T07:54:54;9.93;;;5.70;;
56726;SDS011;42609;52.700;6.236;2023-04-24T07:57:24;19.05;;;8.32;;
56726;SDS011;42609;52.700;6.236;2023-04-24T07:59:50;17.02;;;8.75;;
56726;SDS011;42609;52.700;6.236;2023-04-24T08:02:15;15.80;;;9.45;;
56726;SDS011;42609;52.700;6.236;2023-04-24T08:04:41;20.55;;;11.00;;
56726;SDS011;42609;52.700;6.236;2023-04-24T08:07:07;20.70;;;12.65;;
56726;SDS011;42609;52.700;6.236;2023-04-24T08:09:33;20.73;;;13.05;;
56726;SDS011;42609;52.700;6.236;2023-04-24T08:11:58;21.67;;;12.82;;
56726;SDS011;42609;52.700;6.236;2023-04-24T08:14:24;23.77;;;12.82;;
56726;SDS011;42609;52.700;6.236;2023-04-24T08:16:50;21.00;;;13.07;;
56726;SDS011;42609;52.700;6.236;2023-04-24T08:19:17;22.50;;;13.18;;
56726;SDS011;42609;52.700;6.236;2023-04-24T08:21:42;21.55;;;12.63;;
56726;SDS011;42609;52.700;6.236;2023-04-24T08:24:08;27.45;;;14.10;;
56726;SDS011;42609;52.700;6.236;2023-04-24T08:26:33;21.70;;;14.15;;
56726;SDS011;42609;52.700;6.236;2023-04-24T08:28:59;23.15;;;13.73;;
56726;SDS011;42609;52.700;6.236;2023-04-24T08:31:25;24.67;;;14.10;;
56726;SDS011;42609;52.700;6.236;2023-04-24T08:33:51;27.35;;;14.60;;
56726;SDS011;42609;52.700;6.236;2023-04-24T08:36:16;26.13;;;14.18;;
56726;SDS011;42609;52.700;6.236;2023-04-24T08:38:42;21.80;;;13.32;;
56726;SDS011;42609;52.700;6.236;2023-04-24T08:41:07;19.20;;;12.30;;
56726;SDS011;42609;52.700;6.236;2023-04-24T08:43:34;18.88;;;11.88;;
56726;SDS011;42609;52.700;6.236;2023-04-24T08:46:03;17.67;;;11.02;;
56726;SDS011;42609;52.700;6.236;2023-04-24T08:48:29;19.83;;;12.27;;
56726;SDS011;42609;52.700;6.236;2023-04-24T08:50:56;20.70;;;12.13;;
56726;SDS011;42609;52.700;6.236;2023-04-24T08:53:22;19.80;;;10.88;;
56726;SDS011;42609;52.700;6.236;2023-04-24T08:55:50;19.25;;;11.20;;
56726;SDS011;42609;52.700;6.236;2023-04-24T08:58:16;16.70;;;10.50;;
56726;SDS011;42609;52.700;6.236;2023-04-24T09:00:43;16.25;;;10.00;;
56726;SDS011;42609;52.700;6.236;2023-04-24T09:03:13;15.30;;;8.82;;
56726;SDS011;42609;52.700;6.236;2023-04-24T09:05:40;17.10;;;9.80;;
56726;SDS011;42609;52.700;6.236;2023-04-24T09:08:11;16.60;;;9.05;;
56726;SDS011;42609;52.700;6.236;2023-04-24T09:10:39;14.27;;;8.73;;
56726;SDS011;42609;52.700;6.236;2023-04-24T09:13:05;15.50;;;8.38;;
56726;SDS011;42609;52.700;6.236;2023-04-24T09:15:34;15.63;;;8.48;;
56726;SDS011;42609;52.700;6.236;2023-04-24T09:18:00;16.73;;;9.00;;
56726;SDS011;42609;52.700;6.236;2023-04-24T09:20:26;17.15;;;8.60;;
56726;SDS011;42609;52.700;6.236;2023-04-24T09:22:53;16.85;;;8.23;;
56726;SDS011;42609;52.700;6.236;2023-04-24T09:25:21;14.05;;;7.32;;
56726;SDS011;42609;52.700;6.236;2023-04-24T09:27:47;14.77;;;6.20;;
56726;SDS011;42609;52.700;6.236;2023-04-24T09:30:12;9.70;;;5.57;;
56726;SDS011;42609;52.700;6.236;2023-04-24T09:32:39;9.98;;;5.13;;
56726;SDS011;42609;52.700;6.236;2023-04-24T09:35:10;12.95;;;6.28;;
56726;SDS011;42609;52.700;6.236;2023-04-24T09:37:38;10.77;;;5.18;;
56726;SDS011;42609;52.700;6.236;2023-04-24T09:40:10;9.73;;;4.68;;
56726;SDS011;42609;52.700;6.236;2023-04-24T09:42:44;12.23;;;5.13;;
56726;SDS011;42609;52.700;6.236;2023-04-24T09:45:20;11.02;;;5.20;;
56726;SDS011;42609;52.700;6.236;2023-04-24T09:47:46;10.90;;;5.00;;
56726;SDS011;42609;52.700;6.236;2023-04-24T09:50:20;12.25;;;4.32;;
56726;SDS011;42609;52.700;6.236;2023-04-24T09:53:07;10.43;;;4.38;;
56726;SDS011;42609;52.700;6.236;2023-04-24T09:55:44;11.35;;;4.43;;
56726;SDS011;42609;52.700;6.236;2023-04-24T09:58:14;10.63;;;3.03;;
56726;SDS011;42609;52.700;6.236;2023-04-24T10:00:40;6.90;;;2.60;;
56726;SDS011;42609;52.700;6.236;2023-04-24T10:03:06;8.93;;;2.60;;
56726;SDS011;42609;52.700;6.236;2023-04-24T10:05:32;8.10;;;2.80;;
56726;SDS011;42609;52.700;6.236;2023-04-24T10:08:04;9.00;;;2.92;;
56726;SDS011;42609;52.700;6.236;2023-04-24T10:10:32;11.65;;;2.72;;
56726;SDS011;42609;52.700;6.236;2023-04-24T10:12:59;8.60;;;3.00;;
56726;SDS011;42609;52.700;6.236;2023-04-24T10:15:26;8.18;;;2.70;;
56726;SDS011;42609;52.700;6.236;2023-04-24T10:17:52;7.63;;;2.45;;
56726;SDS011;42609;52.700;6.236;2023-04-24T10:20:19;9.13;;;2.90;;
56726;SDS011;42609;52.700;6.236;2023-04-24T10:22:47;10.30;;;3.00;;
56726;SDS011;42609;52.700;6.236;2023-04-24T10:25:16;10.02;;;2.53;;
56726;SDS011;42609;52.700;6.236;2023-04-24T10:27:42;10.88;;;3.17;;
56726;SDS011;42609;52.700;6.236;2023-04-24T10:30:10;9.90;;;2.95;;
56726;SDS011;42609;52.700;6.236;2023-04-24T10:32:37;12.40;;;3.20;;
56726;SDS011;42609;52.700;6.236;2023-04-24T10:35:03;10.57;;;2.88;;
56726;SDS011;42609;52.700;6.236;2023-04-24T10:37:34;10.85;;;3.92;;
56726;SDS011;42609;52.700;6.236;2023-04-24T10:40:02;11.73;;;3.10;;
56726;SDS011;42609;52.700;6.236;2023-04-24T10:42:28;11.93;;;3.00;;
56726;SDS011;42609;52.700;6.236;2023-04-24T10:44:54;9.32;;;3.17;;
56726;SDS011;42609;52.700;6.236;2023-04-24T10:47:21;10.07;;;2.33;;
56726;SDS011;42609;52.700;6.236;2023-04-24T10:49:46;8.63;;;2.70;;
56726;SDS011;42609;52.700;6.236;2023-04-24T10:52:15;9.32;;;2.28;;
56726;SDS011;42609;52.700;6.236;2023-04-24T10:54:42;12.88;;;2.45;;
56726;SDS011;42609;52.700;6.236;2023-04-24T10:59:45;9.90;;;2.28;;
56726;SDS011;42609;52.700;6.236;2023-04-24T11:02:10;9.68;;;2.28;;
56726;SDS011;42609;52.700;6.236;2023-04-24T11:04:39;9.13;;;2.13;;
56726;SDS011;42609;52.700;6.236;2023-04-24T11:07:04;9.15;;;2.13;;
56726;SDS011;42609;52.700;6.236;2023-04-24T11:09:30;10.13;;;1.98;;
56726;SDS011;42609;52.700;6.236;2023-04-24T11:12:04;7.57;;;2.15;;
56726;SDS011;42609;52.700;6.236;2023-04-24T11:17:32;7.22;;;2.00;;
56726;SDS011;42609;52.700;6.236;2023-04-24T11:20:10;5.47;;;1.63;;
56726;SDS011;42609;52.700;6.236;2023-04-24T11:22:37;8.65;;;2.38;;
56726;SDS011;42609;52.700;6.236;2023-04-24T11:25:05;7.80;;;1.70;;
56726;SDS011;42609;52.700;6.236;2023-04-24T11:27:41;5.78;;;1.70;;
56726;SDS011;42609;52.700;6.236;2023-04-24T11:30:08;9.50;;;2.30;;
56726;SDS011;42609;52.700;6.236;2023-04-24T11:32:36;8.55;;;2.20;;
56726;SDS011;42609;52.700;6.236;2023-04-24T11:37:35;12.10;;;2.97;;
56726;SDS011;42609;52.700;6.236;2023-04-24T11:40:03;7.13;;;1.95;;
56726;SDS011;42609;52.700;6.236;2023-04-24T11:42:34;9.35;;;2.13;;
56726;SDS011;42609;52.700;6.236;2023-04-24T11:45:00;10.73;;;3.00;;
56726;SDS011;42609;52.700;6.236;2023-04-24T11:47:27;12.35;;;2.80;;
56726;SDS011;42609;52.700;6.236;2023-04-24T11:49:58;9.07;;;2.00;;
56726;SDS011;42609;52.700;6.236;2023-04-24T11:52:25;7.28;;;1.77;;
56726;SDS011;42609;52.700;6.236;2023-04-24T11:54:51;7.55;;;1.75;;
56726;SDS011;42609;52.700;6.236;2023-04-24T11:57:21;4.32;;;1.30;;
56726;SDS011;42609;52.700;6.236;2023-04-24T11:59:47;2.65;;;1.10;;
56726;SDS011;42609;52.700;6.236;2023-04-24T12:02:23;5.53;;;1.40;;
56726;SDS011;42609;52.700;6.236;2023-04-24T12:04:49;7.05;;;1.40;;
56726;SDS011;42609;52.700;6.236;2023-04-24T12:07:16;4.13;;;1.25;;
56726;SDS011;42609;52.700;6.236;2023-04-24T12:09:45;3.10;;;1.00;;
56726;SDS011;42609;52.700;6.236;2023-04-24T12:12:31;4.18;;;1.40;;
56726;SDS011;42609;52.700;6.236;2023-04-24T12:14:57;6.28;;;1.40;;
56726;SDS011;42609;52.700;6.236;2023-04-24T12:17:27;4.70;;;1.45;;
56726;SDS011;42609;52.700;6.236;2023-04-24T12:19:57;5.68;;;1.30;;
56726;SDS011;42609;52.700;6.236;2023-04-24T12:22:24;5.13;;;1.40;;
56726;SDS011;42609;52.700;6.236;2023-04-24T12:25:03;5.00;;;1.40;;
56726;SDS011;42609;52.700;6.236;2023-04-24T12:27:33;3.47;;;1.30;;
56726;SDS011;42609;52.700;6.236;2023-04-24T12:29:59;5.97;;;1.58;;
56726;SDS011;42609;52.700;6.236;2023-04-24T12:32:27;6.15;;;1.40;;
56726;SDS011;42609;52.700;6.236;2023-04-24T12:34:53;5.63;;;1.40;;
56726;SDS011;42609;52.700;6.236;2023-04-24T12:37:19;5.55;;;1.40;;
56726;SDS011;42609;52.700;6.236;2023-04-24T12:42:27;6.85;;;1.10;;
56726;SDS011;42609;52.700;6.236;2023-04-24T12:44:55;6.03;;;1.20;;
56726;SDS011;42609;52.700;6.236;2023-04-24T12:47:23;7.13;;;1.50;;
56726;SDS011;42609;52.700;6.236;2023-04-24T12:49:49;6.63;;;1.20;;
56726;SDS011;42609;52.700;6.236;2023-04-24T12:52:17;11.23;;;1.73;;
56726;SDS011;42609;52.700;6.236;2023-04-24T12:54:52;10.05;;;1.48;;
56726;SDS011;42609;52.700;6.236;2023-04-24T12:57:20;5.55;;;1.50;;
56726;SDS011;42609;52.700;6.236;2023-04-24T12:59:46;8.02;;;1.40;;
56726;SDS011;42609;52.700;6.236;2023-04-24T13:02:12;7.45;;;1.27;;
56726;SDS011;42609;52.700;6.236;2023-04-24T13:04:38;6.18;;;1.10;;
56726;SDS011;42609;52.700;6.236;2023-04-24T13:07:04;5.53;;;1.48;;
56726;SDS011;42609;52.700;6.236;2023-04-24T13:09:30;4.18;;;0.90;;
56726;SDS011;42609;52.700;6.236;2023-04-24T13:11:56;4.13;;;0.95;;
56726;SDS011;42609;52.700;6.236;2023-04-24T13:14:22;3.50;;;0.75;;
56726;SDS011;42609;52.700;6.236;2023-04-24T13:16:48;2.83;;;0.82;;
56726;SDS011;42609;52.700;6.236;2023-04-24T13:19:14;2.55;;;0.80;;
56726;SDS011;42609;52.700;6.236;2023-04-24T13:21:40;2.75;;;0.80;;
56726;SDS011;42609;52.700;6.236;2023-04-24T13:24:05;4.07;;;1.05;;
56726;SDS011;42609;52.700;6.236;2023-04-24T13:26:32;4.05;;;0.90;;
56726;SDS011;42609;52.700;6.236;2023-04-24T13:28:58;4.22;;;1.10;;
56726;SDS011;42609;52.700;6.236;2023-04-24T13:31:24;5.15;;;1.05;;
56726;SDS011;42609;52.700;6.236;2023-04-24T13:33:49;5.53;;;1.05;;
56726;SDS011;42609;52.700;6.236;2023-04-24T13:36:15;3.97;;;1.10;;
56726;SDS011;42609;52.700;6.236;2023-04-24T13:38:42;5.00;;;1.20;;
56726;SDS011;42609;52.700;6.236;2023-04-24T13:41:08;6.22;;;1.38;;
56726;SDS011;42609;52.700;6.236;2023-04-24T13:43:34;5.70;;;1.40;;
56726;SDS011;42609;52.700;6.236;2023-04-24T13:46:00;6.90;;;1.58;;
56726;SDS011;42609;52.700;6.236;2023-04-24T13:48:27;6.70;;;1.27;;
56726;SDS011;42609;52.700;6.236;2023-04-24T13:50:56;6.25;;;1.48;;
56726;SDS011;42609;52.700;6.236;2023-04-24T13:53:21;9.57;;;1.90;;
56726;SDS011;42609;52.700;6.236;2023-04-24T13:55:47;8.32;;;1.83;;
56726;SDS011;42609;52.700;6.236;2023-04-24T13:58:13;9.00;;;1.85;;
56726;SDS011;42609;52.700;6.236;2023-04-24T14:00:39;9.52;;;1.90;;
56726;SDS011;42609;52.700;6.236;2023-04-24T14:03:05;8.38;;;2.30;;
56726;SDS011;42609;52.700;6.236;2023-04-24T14:05:31;10.45;;;2.03;;
56726;SDS011;42609;52.700;6.236;2023-04-24T14:07:56;8.32;;;1.73;;
56726;SDS011;42609;52.700;6.236;2023-04-24T14:10:22;8.70;;;1.65;;
56726;SDS011;42609;52.700;6.236;2023-04-24T14:12:47;12.38;;;2.25;;
56726;SDS011;42609;52.700;6.236;2023-04-24T14:15:13;11.73;;;2.58;;
56726;SDS011;42609;52.700;6.236;2023-04-24T14:17:39;11.00;;;1.98;;
56726;SDS011;42609;52.700;6.236;2023-04-24T14:20:05;12.13;;;2.63;;
56726;SDS011;42609;52.700;6.236;2023-04-24T14:22:32;7.97;;;2.75;;
56726;SDS011;42609;52.700;6.236;2023-04-24T14:24:57;13.70;;;2.80;;
56726;SDS011;42609;52.700;6.236;2023-04-24T14:27:24;10.43;;;2.45;;
56726;SDS011;42609;52.700;6.236;2023-04-24T14:29:50;11.80;;;2.75;;
56726;SDS011;42609;52.700;6.236;2023-04-24T14:32:15;9.48;;;2.10;;
56726;SDS011;42609;52.700;6.236;2023-04-24T14:34:41;15.75;;;2.72;;
56726;SDS011;42609;52.700;6.236;2023-04-24T14:37:07;13.18;;;2.22;;
56726;SDS011;42609;52.700;6.236;2023-04-24T14:39:32;11.35;;;2.60;;
56726;SDS011;42609;52.700;6.236;2023-04-24T14:41:58;9.55;;;2.20;;
56726;SDS011;42609;52.700;6.236;2023-04-24T14:44:24;12.43;;;2.33;;
56726;SDS011;42609;52.700;6.236;2023-04-24T14:46:50;11.73;;;2.72;;
56726;SDS011;42609;52.700;6.236;2023-04-24T14:49:15;11.73;;;2.72;;
56726;SDS011;42609;52.700;6.236;2023-04-24T14:51:41;10.32;;;2.05;;